sensor_id;sensor_type;location;lat;lon;timestamp;P1;durP1;ratioP1;P2;durP2;ratioP2
15256;SDS011;7731;50.720;6.912;2023-04-15T00:01:25;6.07;;;3.07;;
15256;SDS011;7731;50.720;6.912;2023-04-15T00:03:58;5.10;;;3.83;;
15256;SDS011;7731;50.720;6.912;2023-04-15T00:06:28;5.07;;;2.93;;
15256;SDS011;7731;50.720;6.912;2023-04-15T00:08:58;6.73;;;3.00;;
15256;SDS011;7731;50.720;6.912;2023-04-15T00:11:31;4.70;;;3.37;;
15256;SDS011;7731;50.720;6.912;2023-04-15T00:14:02;5.60;;;3.70;;
15256;SDS011;7731;50.720;6.912;2023-04-15T00:16:32;5.37;;;3.93;;
15256;SDS011;7731;50.720;6.912;2023-04-15T00:19:03;5.27;;;3.53;;
15256;SDS011;7731;50.720;6.912;2023-04-15T00:21:33;8.10;;;3.97;;
15256;SDS011;7731;50.720;6.912;2023-04-15T00:24:04;10.47;;;3.93;;
15256;SDS011;7731;50.720;6.912;2023-04-15T00:26:37;5.43;;;3.60;;
15256;SDS011;7731;50.720;6.912;2023-04-15T00:29:09;5.90;;;4.00;;
15256;SDS011;7731;50.720;6.912;2023-04-15T00:31:42;5.23;;;3.93;;
15256;SDS011;7731;50.720;6.912;2023-04-15T00:34:12;4.10;;;3.70;;
15256;SDS011;7731;50.720;6.912;2023-04-15T00:36:43;5.30;;;3.57;;
15256;SDS011;7731;50.720;6.912;2023-04-15T00:39:13;5.00;;;3.40;;
15256;SDS011;7731;50.720;6.912;2023-04-15T00:41:47;6.13;;;3.30;;
15256;SDS011;7731;50.720;6.912;2023-04-15T00:44:17;4.10;;;3.00;;
15256;SDS011;7731;50.720;6.912;2023-04-15T00:46:47;3.80;;;2.93;;
15256;SDS011;7731;50.720;6.912;2023-04-15T00:49:20;5.50;;;2.93;;
15256;SDS011;7731;50.720;6.912;2023-04-15T00:51:50;3.50;;;2.77;;
15256;SDS011;7731;50.720;6.912;2023-04-15T00:54:21;3.43;;;2.80;;
15256;SDS011;7731;50.720;6.912;2023-04-15T00:56:56;4.03;;;2.73;;
15256;SDS011;7731;50.720;6.912;2023-04-15T00:59:27;5.17;;;3.13;;
15256;SDS011;7731;50.720;6.912;2023-04-15T01:02:01;4.73;;;2.90;;
15256;SDS011;7731;50.720;6.912;2023-04-15T01:04:32;7.33;;;3.20;;
15256;SDS011;7731;50.720;6.912;2023-04-15T01:07:06;3.13;;;2.63;;
15256;SDS011;7731;50.720;6.912;2023-04-15T01:09:36;8.53;;;3.13;;
15256;SDS011;7731;50.720;6.912;2023-04-15T01:12:10;4.50;;;3.07;;
15256;SDS011;7731;50.720;6.912;2023-04-15T01:14:43;4.57;;;3.40;;
15256;SDS011;7731;50.720;6.912;2023-04-15T01:17:13;3.80;;;3.10;;
15256;SDS011;7731;50.720;6.912;2023-04-15T01:19:44;5.90;;;3.23;;
15256;SDS011;7731;50.720;6.912;2023-04-15T01:22:14;6.50;;;3.33;;
15256;SDS011;7731;50.720;6.912;2023-04-15T01:24:48;5.17;;;3.10;;
15256;SDS011;7731;50.720;6.912;2023-04-15T01:27:28;4.73;;;3.40;;
15256;SDS011;7731;50.720;6.912;2023-04-15T01:29:59;5.87;;;3.70;;
15256;SDS011;7731;50.720;6.912;2023-04-15T01:32:32;5.93;;;3.63;;
15256;SDS011;7731;50.720;6.912;2023-04-15T01:35:03;5.23;;;3.33;;
15256;SDS011;7731;50.720;6.912;2023-04-15T01:37:34;5.53;;;3.87;;
15256;SDS011;7731;50.720;6.912;2023-04-15T01:40:07;6.00;;;3.50;;
15256;SDS011;7731;50.720;6.912;2023-04-15T01:42:41;3.93;;;3.30;;
15256;SDS011;7731;50.720;6.912;2023-04-15T01:45:12;4.33;;;2.83;;
15256;SDS011;7731;50.720;6.912;2023-04-15T01:47:47;4.17;;;2.93;;
15256;SDS011;7731;50.720;6.912;2023-04-15T01:50:17;4.87;;;3.17;;
15256;SDS011;7731;50.720;6.912;2023-04-15T04:05:27;2.80;;;2.30;;
15256;SDS011;7731;50.720;6.912;2023-04-15T04:29:36;5.97;;;2.37;;
15256;SDS011;7731;50.720;6.912;2023-04-15T11:20:27;3.95;;;3.03;;
15256;SDS011;7731;50.720;6.912;2023-04-15T11:23:00;4.50;;;4.10;;
15256;SDS011;7731;50.720;6.912;2023-04-15T11:25:40;11.23;;;8.32;;
15256;SDS011;7731;50.720;6.912;2023-04-15T11:28:12;7.30;;;6.63;;
15256;SDS011;7731;50.720;6.912;2023-04-15T11:30:42;6.88;;;6.18;;
15256;SDS011;7731;50.720;6.912;2023-04-15T12:37:46;4.53;;;4.13;;
15256;SDS011;7731;50.720;6.912;2023-04-15T12:45:43;5.95;;;5.45;;
15256;SDS011;7731;50.720;6.912;2023-04-15T12:48:14;4.75;;;4.40;;
15256;SDS011;7731;50.720;6.912;2023-04-15T12:50:46;4.72;;;4.32;;
15256;SDS011;7731;50.720;6.912;2023-04-15T12:53:19;5.13;;;4.65;;
15256;SDS011;7731;50.720;6.912;2023-04-15T12:55:49;4.85;;;4.45;;
15256;SDS011;7731;50.720;6.912;2023-04-15T12:58:20;4.50;;;4.10;;
15256;SDS011;7731;50.720;6.912;2023-04-15T13:00:50;4.80;;;4.40;;
15256;SDS011;7731;50.720;6.912;2023-04-15T13:03:20;3.97;;;3.67;;
15256;SDS011;7731;50.720;6.912;2023-04-15T13:05:52;4.40;;;4.00;;
15256;SDS011;7731;50.720;6.912;2023-04-15T13:08:25;4.10;;;3.70;;
15256;SDS011;7731;50.720;6.912;2023-04-15T13:10:56;4.30;;;3.95;;
15256;SDS011;7731;50.720;6.912;2023-04-15T13:13:27;3.88;;;3.55;;
15256;SDS011;7731;50.720;6.912;2023-04-15T13:15:57;3.85;;;3.50;;
15256;SDS011;7731;50.720;6.912;2023-04-15T13:18:28;4.25;;;3.22;;
15256;SDS011;7731;50.720;6.912;2023-04-15T13:21:00;3.90;;;3.50;;
15256;SDS011;7731;50.720;6.912;2023-04-15T13:23:35;5.38;;;4.80;;
15256;SDS011;7731;50.720;6.912;2023-04-15T13:26:06;6.05;;;4.22;;
15256;SDS011;7731;50.720;6.912;2023-04-15T13:28:36;5.50;;;5.00;;
15256;SDS011;7731;50.720;6.912;2023-04-15T13:31:06;6.00;;;5.50;;
15256;SDS011;7731;50.720;6.912;2023-04-15T13:33:37;8.00;;;7.30;;
15256;SDS011;7731;50.720;6.912;2023-04-15T13:36:07;6.30;;;5.70;;
15256;SDS011;7731;50.720;6.912;2023-04-15T13:38:43;5.75;;;5.15;;
15256;SDS011;7731;50.720;6.912;2023-04-15T13:41:17;6.43;;;5.88;;
15256;SDS011;7731;50.720;6.912;2023-04-15T13:43:48;7.15;;;6.25;;
15256;SDS011;7731;50.720;6.912;2023-04-15T13:46:20;9.85;;;8.48;;
15256;SDS011;7731;50.720;6.912;2023-04-15T13:48:51;6.10;;;5.13;;
15256;SDS011;7731;50.720;6.912;2023-04-15T13:51:22;4.65;;;4.10;;
15256;SDS011;7731;50.720;6.912;2023-04-15T13:53:55;5.10;;;4.60;;
15256;SDS011;7731;50.720;6.912;2023-04-15T13:56:25;5.75;;;5.25;;
15256;SDS011;7731;50.720;6.912;2023-04-15T13:58:58;7.30;;;6.60;;
15256;SDS011;7731;50.720;6.912;2023-04-15T14:01:41;10.13;;;9.07;;
15256;SDS011;7731;50.720;6.912;2023-04-15T14:04:14;12.45;;;10.05;;
15256;SDS011;7731;50.720;6.912;2023-04-15T14:06:45;12.13;;;10.93;;
15256;SDS011;7731;50.720;6.912;2023-04-15T14:09:18;12.07;;;10.93;;
15256;SDS011;7731;50.720;6.912;2023-04-15T14:11:52;11.35;;;10.25;;
15256;SDS011;7731;50.720;6.912;2023-04-15T14:14:24;11.90;;;10.70;;
15256;SDS011;7731;50.720;6.912;2023-04-15T14:16:54;10.68;;;9.68;;
15256;SDS011;7731;50.720;6.912;2023-04-15T14:19:25;10.52;;;9.43;;
15256;SDS011;7731;50.720;6.912;2023-04-15T14:21:58;11.40;;;10.30;;
15256;SDS011;7731;50.720;6.912;2023-04-15T14:24:31;11.97;;;10.87;;
15256;SDS011;7731;50.720;6.912;2023-04-15T14:27:01;11.63;;;10.55;;
15256;SDS011;7731;50.720;6.912;2023-04-15T14:29:34;10.75;;;9.75;;
15256;SDS011;7731;50.720;6.912;2023-04-15T14:32:08;13.00;;;11.77;;
15256;SDS011;7731;50.720;6.912;2023-04-15T14:34:42;10.93;;;9.85;;
15256;SDS011;7731;50.720;6.912;2023-04-15T14:37:13;13.50;;;12.20;;
15256;SDS011;7731;50.720;6.912;2023-04-15T14:39:46;10.80;;;9.70;;
15256;SDS011;7731;50.720;6.912;2023-04-15T14:42:16;16.13;;;13.75;;
15256;SDS011;7731;50.720;6.912;2023-04-15T14:44:46;14.52;;;12.98;;
15256;SDS011;7731;50.720;6.912;2023-04-15T14:47:16;14.80;;;12.68;;
15256;SDS011;7731;50.720;6.912;2023-04-15T14:49:47;18.83;;;14.93;;
15256;SDS011;7731;50.720;6.912;2023-04-15T14:52:19;14.60;;;13.10;;
15256;SDS011;7731;50.720;6.912;2023-04-15T14:54:52;15.15;;;13.45;;
15256;SDS011;7731;50.720;6.912;2023-04-15T14:57:23;15.80;;;14.10;;
15256;SDS011;7731;50.720;6.912;2023-04-15T14:59:53;15.85;;;14.27;;
15256;SDS011;7731;50.720;6.912;2023-04-15T15:02:23;18.47;;;16.57;;
15256;SDS011;7731;50.720;6.912;2023-04-15T15:05:05;15.63;;;13.73;;
15256;SDS011;7731;50.720;6.912;2023-04-15T15:07:38;14.55;;;12.50;;
15256;SDS011;7731;50.720;6.912;2023-04-15T15:10:11;16.93;;;15.03;;
15256;SDS011;7731;50.720;6.912;2023-04-15T15:12:58;11.63;;;10.13;;
15256;SDS011;7731;50.720;6.912;2023-04-15T15:15:28;13.32;;;10.95;;
15256;SDS011;7731;50.720;6.912;2023-04-15T15:17:59;7.82;;;7.00;;
15256;SDS011;7731;50.720;6.912;2023-04-15T15:20:30;7.28;;;6.35;;
15256;SDS011;7731;50.720;6.912;2023-04-15T15:23:01;14.38;;;8.70;;
15256;SDS011;7731;50.720;6.912;2023-04-15T15:25:34;12.25;;;10.35;;
15256;SDS011;7731;50.720;6.912;2023-04-15T15:28:05;11.03;;;8.90;;
15256;SDS011;7731;50.720;6.912;2023-04-15T15:30:36;17.75;;;10.43;;
15256;SDS011;7731;50.720;6.912;2023-04-15T15:33:06;16.55;;;11.68;;
15256;SDS011;7731;50.720;6.912;2023-04-15T15:35:36;9.88;;;7.57;;
15256;SDS011;7731;50.720;6.912;2023-04-15T15:38:15;9.32;;;8.32;;
15256;SDS011;7731;50.720;6.912;2023-04-15T15:40:48;11.32;;;3.10;;
15256;SDS011;7731;50.720;6.912;2023-04-15T15:43:20;5.93;;;4.27;;
15256;SDS011;7731;50.720;6.912;2023-04-15T15:45:53;8.15;;;5.63;;
15256;SDS011;7731;50.720;6.912;2023-04-15T15:48:24;5.78;;;4.63;;
15256;SDS011;7731;50.720;6.912;2023-04-15T15:50:54;5.90;;;4.90;;
15256;SDS011;7731;50.720;6.912;2023-04-15T15:53:24;5.40;;;4.25;;
15256;SDS011;7731;50.720;6.912;2023-04-15T15:55:57;4.47;;;3.67;;
15256;SDS011;7731;50.720;6.912;2023-04-15T15:58:29;6.00;;;4.20;;
15256;SDS011;7731;50.720;6.912;2023-04-15T16:00:59;5.17;;;4.50;;
15256;SDS011;7731;50.720;6.912;2023-04-15T16:03:30;11.40;;;7.63;;
15256;SDS011;7731;50.720;6.912;2023-04-15T16:06:00;42.50;;;22.53;;
15256;SDS011;7731;50.720;6.912;2023-04-15T16:08:32;24.63;;;13.60;;
15256;SDS011;7731;50.720;6.912;2023-04-15T16:11:05;22.40;;;12.90;;
15256;SDS011;7731;50.720;6.912;2023-04-15T16:13:37;5.90;;;4.70;;
15256;SDS011;7731;50.720;6.912;2023-04-15T16:16:08;10.93;;;7.43;;
15256;SDS011;7731;50.720;6.912;2023-04-15T16:18:38;16.13;;;11.27;;
15256;SDS011;7731;50.720;6.912;2023-04-15T16:21:10;8.15;;;5.75;;
15256;SDS011;7731;50.720;6.912;2023-04-15T16:23:41;9.53;;;6.13;;
15256;SDS011;7731;50.720;6.912;2023-04-15T16:26:14;9.63;;;7.10;;
15256;SDS011;7731;50.720;6.912;2023-04-15T16:28:47;14.57;;;8.33;;
15256;SDS011;7731;50.720;6.912;2023-04-15T16:31:19;11.02;;;6.13;;
15256;SDS011;7731;50.720;6.912;2023-04-15T16:33:49;8.73;;;6.17;;
15256;SDS011;7731;50.720;6.912;2023-04-15T16:36:19;7.67;;;6.03;;
15256;SDS011;7731;50.720;6.912;2023-04-15T16:38:50;15.70;;;9.67;;
15256;SDS011;7731;50.720;6.912;2023-04-15T16:41:22;5.68;;;5.10;;
15256;SDS011;7731;50.720;6.912;2023-04-15T17:59:50;5.87;;;5.37;;
15256;SDS011;7731;50.720;6.912;2023-04-15T18:02:21;9.40;;;6.10;;
15256;SDS011;7731;50.720;6.912;2023-04-15T18:04:51;9.70;;;6.40;;
15256;SDS011;7731;50.720;6.912;2023-04-15T18:07:22;5.77;;;4.83;;
15256;SDS011;7731;50.720;6.912;2023-04-15T18:09:52;9.70;;;6.30;;
15256;SDS011;7731;50.720;6.912;2023-04-15T18:12:23;8.00;;;4.97;;
15256;SDS011;7731;50.720;6.912;2023-04-15T18:14:56;6.87;;;4.90;;
15256;SDS011;7731;50.720;6.912;2023-04-15T18:17:29;5.60;;;3.83;;
15256;SDS011;7731;50.720;6.912;2023-04-15T18:19:59;5.50;;;4.57;;
15256;SDS011;7731;50.720;6.912;2023-04-15T18:22:30;7.13;;;4.20;;
15256;SDS011;7731;50.720;6.912;2023-04-15T18:25:00;7.20;;;3.77;;
15256;SDS011;7731;50.720;6.912;2023-04-15T18:27:33;4.77;;;3.70;;
15256;SDS011;7731;50.720;6.912;2023-04-15T18:30:08;4.27;;;3.47;;
15256;SDS011;7731;50.720;6.912;2023-04-15T18:32:42;6.77;;;3.53;;
15256;SDS011;7731;50.720;6.912;2023-04-15T18:35:15;4.67;;;3.53;;
15256;SDS011;7731;50.720;6.912;2023-04-15T18:37:46;4.40;;;3.50;;
15256;SDS011;7731;50.720;6.912;2023-04-15T18:40:16;5.60;;;3.83;;
15256;SDS011;7731;50.720;6.912;2023-04-15T18:42:47;4.43;;;3.50;;
15256;SDS011;7731;50.720;6.912;2023-04-15T18:45:20;4.50;;;3.53;;
15256;SDS011;7731;50.720;6.912;2023-04-15T18:47:50;7.13;;;4.20;;
15256;SDS011;7731;50.720;6.912;2023-04-15T18:50:21;5.63;;;3.87;;
15256;SDS011;7731;50.720;6.912;2023-04-15T18:52:54;3.40;;;3.10;;
15256;SDS011;7731;50.720;6.912;2023-04-15T18:55:24;4.00;;;3.60;;
15256;SDS011;7731;50.720;6.912;2023-04-15T21:49:02;5.37;;;4.83;;
15256;SDS011;7731;50.720;6.912;2023-04-15T22:10:23;5.77;;;4.30;;
15256;SDS011;7731;50.720;6.912;2023-04-15T23:34:24;19.50;;;13.53;;
